Latest Conditions
At L.F.Wade Int. Airport
Recorded at 8:55 pm
Partly Cloudy
Temp.: 
21°C/70°F
Humidity: 
68%
Wind: 
E 13KT
or 15mph
UV Index: 
0
Island Observations
 
Observations
Monday, November 12, 2018

Observations are in local time and taken at least once an hour, or upon the start and end of specified events such as showers and thunderstorms.

Time Sky / Weather Wind Speed/Gusts Temp. R.H. Pressure
     knots (mph)  °C (°F)  %  mb / "Hg
 20:55 Partly Cloudy  E 13/0 (15/0) 21(70) 68 1027 / 30.33
 19:55 Partly Cloudy  ENE 13/0 (15/0) 21(71) 66 1026 / 30.31
 18:55 Mostly Cloudy  ENE 14/0 (16/0) 21(71) 67 1026 / 30.29
 18:26 Mostly Cloudy  E 13/0 (15/0) 21(71) 68 1026 / 30.29
 17:55 Overcast  ENE 12/0 (14/0) 22(71) 69 1025 / 30.28
 16:55 Mostly Cloudy  ENE 15/0 (17/0) 22(71) 70 1025 / 30.27
 15:55 Mostly Cloudy  ENE 14/0 (16/0) 22(71) 69 1025 / 30.26
 14:55 Mostly Cloudy  NE 12/0 (14/0) 22(71) 71 1025 / 30.26
 14:38 Mostly Cloudy  NE 12/0 (14/0) 22(71) 71 1025 / 30.26
 13:55 Mostly Cloudy Showers ENE 12/0 (14/0) 21(71) 76 1024 / 30.25
 13:31 Mostly Cloudy Showers E 14/0 (16/0) 21(70) 78 1024 / 30.25
 13:08 Overcast Showers ENE 14/0 (16/0) 22(71) 72 1025 / 30.26
 12:55 Overcast Showers NE 14/0 (16/0) 22(71) 74 1025 / 30.26
 12:17 Overcast Showers ENE 14/0 (16/0) 22(71) 75 1025 / 30.27
 11:55 Mostly Cloudy Showers ENE 13/0 (15/0) 21(70) 77 1025 / 30.27
 11:48 Mostly Cloudy Showers ENE 13/0 (15/0) 21(70) 80 1025 / 30.28
 11:30 Mostly Cloudy  NE 15/0 (17/0) 21(70) 78 1025 / 30.28
 11:16 Mostly Cloudy Showers NE 15/0 (17/0) 21(70) 79 1025 / 30.28
 10:55 Mostly Cloudy Showers NE 13/0 (15/0) 22(72) 69 1025 / 30.28
 10:07 Mostly Cloudy  NE 15/0 (17/0) 21(70) 79 1026 / 30.29
 09:55 Mostly Cloudy Showers NE 14/0 (16/0) 21(70) 80 1025 / 30.28
 09:32 Overcast Showers NE 13/0 (15/0) 21(69) 82 1025 / 30.28
 09:02 Overcast Showers NE 15/0 (17/0) 20(68) 85 1025 / 30.27
 08:55 Mostly Cloudy Showers NE 14/0 (16/0) 20(69) 84 1025 / 30.26
 08:04 Mostly Cloudy Showers NE 13/0 (15/0) 20(69) 80 1024 / 30.25
 07:55 Overcast Drizzle NE 14/0 (16/0) 20(68) 83 1024 / 30.25
 07:40 Overcast Drizzle NNE 15/0 (17/0) 20(67) 86 1024 / 30.25
 06:55 Overcast Showers NNE 18/0 (21/0) 20(67) 87 1023 / 30.22
 06:02 Overcast Showers NE 15/0 (17/0) 20(67) 88 1023 / 30.20
 05:55 Overcast Showers NNE 15/0 (17/0) 20(67) 90 1023 / 30.20
 04:55 Overcast Showers NNE 18/0 (21/0) 20(68) 93 1022 / 30.17
 03:55 Mostly Cloudy Showers NNE 14/0 (16/0) 21(70) 86 1021 / 30.15
 03:18 Overcast Showers NNE 15/0 (17/0) 21(70) 88 1021 / 30.15
 02:55 Overcast Showers NNE 17/0 (20/0) 21(69) 92 1021 / 30.15
 01:55 Overcast Showers NNE 13/0 (15/0) 21(69) 93 1021 / 30.14
 01:48 Overcast Showers NE 12/0 (14/0) 21(70) 91 1021 / 30.14
 01:25 Mostly Cloudy Showers ENE 11/0 (13/0) 22(71) 85 1021 / 30.14
 00:55 Mostly Cloudy Showers NE 10/0 (12/0) 22(71) 87 1021 / 30.14
 23:55 Mostly Cloudy Showers NE 9/0 (10/0) 22(72) 85 1021 / 30.14
 22:55 Mostly Cloudy Showers NE 9/0 (10/0) 23(73) 81 1021 / 30.14
 21:55 Partly Cloudy  NE 9/0 (10/0) 23(73) 82 1020 / 30.13
 20:55 Mostly Cloudy Showers NE 10/0 (12/0) 23(73) 82 1020 / 30.12
 19:55 Partly Cloudy  NE 11/0 (13/0) 23(73) 84 1020 / 30.11
 18:55 Partly Cloudy  NE 11/0 (13/0) 23(73) 83 1019 / 30.10
 17:55 Partly Cloudy  NNE 12/0 (14/0) 23(73) 84 1019 / 30.09
 16:55 Mostly Cloudy Showers NNE 11/0 (13/0) 23(73) 86 1018 / 30.07
 16:44 Mostly Cloudy Showers NNE 11/0 (13/0) 23(73) 87 1018 / 30.07
 16:21 Mostly Cloudy Showers NE 15/0 (17/0) 24(75) 82 1018 / 30.07
 15:55 Mostly Cloudy  NE 10/0 (12/0) 24(76) 80 1018 / 30.06
 15:18 Partly Cloudy  NE 11/0 (13/0) 24(76) 80 1017 / 30.04
 14:55 Mostly Cloudy  NNE 10/0 (12/0) 25(77) 77 1017 / 30.04
 14:14 Mostly Cloudy  NNE 12/0 (14/0) 25(76) 79 1018 / 30.05
 13:55 Partly Cloudy  NNE 12/0 (14/0) 25(77) 81 1017 / 30.04
 12:55 Few Clouds  NNE 11/0 (13/0) 26(78) 76 1018 / 30.05
 11:55 Partly Cloudy  NNE 13/0 (15/0) 25(77) 79 1018 / 30.07
 10:55 Mostly Cloudy  NNE 11/0 (13/0) 25(76) 82 1018 / 30.07
 09:55 Mostly Cloudy  N 6/0 (7/0) 26(78) 80 1018 / 30.07
 08:55 Partly Cloudy  N 7/0 (8/0) 25(76) 83 1018 / 30.05
 07:55 Partly Cloudy  NNW 4/0 (5/0) 24(76) 87 1017 / 30.04
 06:55 Mostly Cloudy  NNW 5/0 (6/0) 24(75) 87 1017 / 30.02
 05:55 Partly Cloudy  NW 5/0 (6/0) 23(74) 90 1016 / 30.00
 04:55 Mostly Cloudy  WNW 5/0 (6/0) 23(73) 94 1016 / 29.99
 03:55 Mostly Cloudy  WNW 2/0 (2/0) 22(72) 95 1016 / 29.99
 03:16 Mostly Cloudy Showers W 2/0 (2/0) 23(73) 94 1016 / 29.99
 03:05 Mostly Cloudy Showers WNW 3/0 (3/0) 23(73) 94 1016 / 29.99
 02:55 Overcast Showers SW 4/0 (5/0) 23(73) 93 1016 / 29.99
 02:40 Mostly Cloudy Showers WSW 4/0 (5/0) 23(73) 93 1016 / 29.99
 02:23 Mostly Cloudy Showers W 6/0 (7/0) 23(73) 93 1016 / 30.00
 01:55 Mostly Cloudy Showers WSW 6/0 (7/0) 23(74) 89 1016 / 30.01
 00:55 Mostly Cloudy Showers WSW 6/0 (7/0) 23(74) 89 1016 / 30.00
 00:42 Mostly Cloudy Showers WSW 6/0 (7/0) 23(74) 89 1016 / 30.00
 00:18 Mostly Cloudy Showers W 8/0 (9/0) 24(75) 94 1016 / 30.00
 00:11 Mostly Cloudy Showers SW 8/0 (9/0) 24(75) 94 1016 / 30.00
 23:55 Mostly Cloudy Showers SSW 9/0 (10/0) 24(74) 94 1016 / 30.00
 23:10 Overcast Showers SSW 8/0 (9/0) 24(74) 94 1016 / 30.01
 22:55 Mostly Cloudy Showers S 8/0 (9/0) 24(75) 93 1016 / 30.01
 22:03 Overcast Showers SW 8/0 (9/0) 24(75) 94 1017 / 30.03
 21:55 Overcast Showers SSW 8/0 (9/0) 24(74) 95 1017 / 30.02
 21:43 Overcast Showers SW 8/0 (9/0) 24(74) 94 1017 / 30.02
 21:15 Overcast Showers S 11/0 (13/0) 23(74) 95 1017 / 30.02
 20:55 Overcast Thunderstorm S 10/0 (12/0) 23(74) 94 1017 / 30.02
 20:41 Overcast Thunderstorm S 8/0 (9/0) 24(74) 94 1017 / 30.02
 20:25 Overcast Thunderstorm S 11/0 (13/0) 24(74) 95 1017 / 30.02
 20:13 Overcast Thunderstorm S 11/0 (13/0) 24(74) 95 1017 / 30.02
 20:08 Overcast Thunderstorm S 11/0 (13/0) 24(75) 94 1017 / 30.02
 19:55 Overcast Showers S 11/0 (13/0) 24(75) 92 1017 / 30.02
 19:38 Overcast Showers S 10/0 (12/0) 24(76) 91 1017 / 30.02
 19:30 Mostly Cloudy Showers S 10/0 (12/0) 24(76) 90 1017 / 30.02
 18:55 Mostly Cloudy Showers S 11/0 (13/0) 24(76) 88 1017 / 30.03
 17:55 Mostly Cloudy Showers S 10/0 (12/0) 24(76) 88 1017 / 30.02
 16:55 Mostly Cloudy  S 10/0 (12/0) 24(76) 86 1017 / 30.02
 16:39 Mostly Cloudy  S 9/0 (10/0) 24(76) 85 1017 / 30.02
 15:55 Mostly Cloudy  S 11/0 (13/0) 25(76) 83 1016 / 30.01
 15:44 Mostly Cloudy  S 10/0 (12/0) 25(76) 84 1017 / 30.02
 14:55 Mostly Cloudy  S 12/0 (14/0) 25(78) 81 1017 / 30.02
 13:55 Mostly Cloudy  S 12/0 (14/0) 25(77) 79 1017 / 30.02
 12:55 Mostly Cloudy  S 12/0 (14/0) 26(78) 76 1017 / 30.03
 11:55 Partly Cloudy  SSE 15/0 (17/0) 26(78) 76 1018 / 30.06
 10:55 Partly Cloudy  SSE 13/0 (15/0) 26(78) 78 1018 / 30.07
 09:55 Mostly Cloudy  SSE 12/0 (14/0) 25(77) 79 1019 / 30.09
Island AWOS